Time;durP1;ratioP1;P1;durP2;ratioP2;P2;SDS_P1;SDS_P2;PMS_P1;PMS_P2;Temp;Humidity;BMP_temperature;BMP_pressure;BME280_temperature;BME280_humidity;BME280_pressure;Samples;Min_cycle;Max_cycle;Signal;HPM_P1;HPM_P2
2023/07/20 00:01:59;;;;;;;2.15;1.50;;;15.10;99.90;;;;;;5124614;27;20461;-62
2023/07/20 00:04:25;;;;;;;2.85;1.80;;;15.00;99.90;;;;;;5127184;27;20034;-63
2023/07/20 00:06:50;;;;;;;2.08;1.90;;;15.00;99.90;;;;;;5125637;27;20074;-63
2023/07/20 00:09:16;;;;;;;2.10;1.90;;;15.00;99.90;;;;;;5120862;27;20138;-62
2023/07/20 00:11:50;;;;;;;2.53;2.10;;;15.00;99.90;;;;;;5143275;27;20065;-62
2023/07/20 00:14:16;;;;;;;2.78;2.10;;;15.00;99.90;;;;;;5117623;27;20031;-62
2023/07/20 00:16:42;;;;;;;2.50;2.30;;;14.90;99.90;;;;;;5134668;27;20038;-62
2023/07/20 00:19:08;;;;;;;2.58;2.05;;;14.90;99.90;;;;;;5124308;27;20046;-63
2023/07/20 00:21:33;;;;;;;2.30;2.10;;;14.90;99.90;;;;;;5142071;27;20076;-62
2023/07/20 00:23:59;;;;;;;2.75;2.50;;;14.90;99.90;;;;;;5124130;27;20804;-62
2023/07/20 00:26:25;;;;;;;2.60;1.98;;;14.90;99.90;;;;;;5122963;27;20046;-62
2023/07/20 00:28:53;;;;;;;4.25;2.15;;;14.90;99.90;;;;;;5138672;27;20043;-62
2023/07/20 00:31:19;;;;;;;2.50;2.30;;;14.90;99.90;;;;;;5126196;27;20469;-62
2023/07/20 00:33:45;;;;;;;2.67;2.47;;;14.90;99.90;;;;;;5123844;27;20031;-62
2023/07/20 00:36:10;;;;;;;3.83;2.30;;;14.90;99.90;;;;;;5136542;27;20035;-63
2023/07/20 00:38:36;;;;;;;4.07;2.70;;;14.90;99.90;;;;;;5124606;27;20039;-62
2023/07/20 00:41:01;;;;;;;4.22;2.22;;;14.90;99.90;;;;;;5126570;27;20533;-63
2023/07/20 00:43:27;;;;;;;2.63;2.10;;;14.90;99.90;;;;;;5129023;27;20404;-61
2023/07/20 00:45:53;;;;;;;2.53;2.20;;;14.90;99.90;;;;;;5128708;27;20046;-62
2023/07/20 00:48:19;;;;;;;3.20;2.08;;;14.90;99.90;;;;;;5121799;27;20091;-63
2023/07/20 00:50:46;;;;;;;3.22;2.33;;;14.80;99.90;;;;;;5123481;27;20027;-63
2023/07/20 00:53:11;;;;;;;2.70;2.50;;;14.80;99.90;;;;;;5136536;27;20527;-63
2023/07/20 00:55:37;;;;;;;2.45;2.13;;;14.80;99.90;;;;;;5130788;27;20043;-61
2023/07/20 00:58:04;;;;;;;2.40;2.20;;;14.80;99.90;;;;;;5126783;27;20481;-62
2023/07/20 01:00:30;;;;;;;2.40;2.20;;;14.80;99.90;;;;;;5123845;27;20047;-62
2023/07/20 01:02:56;;;;;;;2.40;2.00;;;14.80;99.90;;;;;;5121924;27;20035;-62
2023/07/20 01:05:27;;;;;;;2.17;2.08;;;14.80;99.90;;;;;;5122194;27;20038;-62
2023/07/20 01:08:07;;;;;;;2.67;2.47;;;14.70;99.90;;;;;;5125520;27;20087;-63
2023/07/20 01:10:50;;;;;;;3.65;2.50;;;14.70;99.90;;;;;;5120738;27;20176;-63
2023/07/20 01:13:19;;;;;;;2.10;1.92;;;14.70;99.90;;;;;;5131499;27;20046;-63
2023/07/20 01:15:51;;;;;;;2.55;2.33;;;14.70;99.90;;;;;;5143638;27;20504;-63
2023/07/20 01:18:17;;;;;;;4.07;2.20;;;14.70;99.90;;;;;;5138117;27;20399;-62
2023/07/20 01:20:43;;;;;;;2.30;2.10;;;14.70;99.90;;;;;;5124311;27;20064;-63
2023/07/20 01:23:45;;;;;;;2.72;2.35;;;14.70;99.90;;;;;;5140518;27;20164;-62
2023/07/20 01:27:18;;;;;;;2.60;2.40;;;14.60;99.90;;;;;;5123088;27;20046;-62
2023/07/20 01:30:15;;;;;;;2.20;2.10;;;14.60;99.90;;;;;;5040252;28;20037;-63
2023/07/20 01:32:42;;;;;;;2.50;2.30;;;14.50;99.90;;;;;;4986792;28;20153;-62
2023/07/20 01:35:14;;;;;;;2.60;2.40;;;14.50;99.90;;;;;;5003391;28;20054;-62
2023/07/20 01:37:42;;;;;;;2.47;2.28;;;14.40;99.90;;;;;;4990760;28;20049;-62
2023/07/20 01:40:09;;;;;;;6.10;2.78;;;14.40;99.90;;;;;;4979582;28;20061;-63
2023/07/20 01:42:35;;;;;;;2.95;2.60;;;14.40;99.90;;;;;;4991642;28;20038;-61
2023/07/20 01:45:00;;;;;;;2.60;2.38;;;14.30;99.90;;;;;;5006624;28;20076;-61
2023/07/20 01:47:26;;;;;;;2.47;2.28;;;14.40;99.90;;;;;;4991217;28;20054;-62
2023/07/20 01:49:51;;;;;;;3.42;2.42;;;14.30;99.90;;;;;;5006656;28;20069;-62
2023/07/20 01:52:17;;;;;;;2.70;2.50;;;14.30;99.90;;;;;;4987091;28;20670;-62
2023/07/20 01:54:43;;;;;;;2.40;2.20;;;14.20;99.90;;;;;;4988143;28;20050;-62
2023/07/20 01:57:08;;;;;;;2.55;2.35;;;14.20;99.90;;;;;;5009294;28;20114;-62
2023/07/20 01:59:34;;;;;;;3.13;2.40;;;14.10;99.90;;;;;;5027204;28;20059;-63
2023/07/20 02:02:00;;;;;;;2.75;2.30;;;14.10;99.90;;;;;;5048730;28;20072;-63
2023/07/20 02:04:25;;;;;;;2.70;2.50;;;14.10;99.90;;;;;;5050567;28;20122;-62
2023/07/20 02:06:51;;;;;;;3.15;2.70;;;14.00;99.90;;;;;;5063618;28;20063;-62
2023/07/20 02:09:17;;;;;;;2.30;2.10;;;14.00;99.90;;;;;;5076399;27;20047;-63
2023/07/20 02:11:42;;;;;;;2.83;2.63;;;14.00;99.90;;;;;;5138700;27;20114;-63
2023/07/20 02:14:08;;;;;;;2.70;2.50;;;13.90;99.90;;;;;;5136083;27;20114;-62
2023/07/20 02:16:33;;;;;;;2.30;2.10;;;13.90;99.90;;;;;;5140928;27;20110;-62
2023/07/20 02:18:59;;;;;;;2.08;1.88;;;13.80;99.90;;;;;;5121971;27;20035;-63
2023/07/20 02:21:25;;;;;;;4.00;2.58;;;13.80;99.90;;;;;;5128720;27;20039;-62
2023/07/20 02:23:50;;;;;;;2.30;2.10;;;13.80;99.90;;;;;;5130503;27;20557;-62
2023/07/20 02:26:16;;;;;;;2.33;2.13;;;13.70;99.90;;;;;;5127832;27;20039;-62
2023/07/20 02:28:42;;;;;;;2.50;1.95;;;13.70;99.90;;;;;;5130399;27;20051;-61
2023/07/20 02:31:07;;;;;;;2.42;2.22;;;13.70;99.90;;;;;;5131561;27;20071;-62
2023/07/20 02:33:33;;;;;;;4.65;2.60;;;13.60;99.90;;;;;;5133605;27;20087;-63
2023/07/20 02:35:58;;;;;;;2.45;2.25;;;13.60;99.90;;;;;;5121098;27;20751;-62
2023/07/20 02:38:24;;;;;;;2.55;2.33;;;13.50;99.90;;;;;;5137939;27;20138;-62
2023/07/20 02:40:51;;;;;;;3.00;2.70;;;13.50;99.90;;;;;;5132736;27;20051;-62
2023/07/20 02:43:17;;;;;;;2.83;2.53;;;13.50;99.90;;;;;;5100698;27;20062;-62
2023/07/20 02:45:43;;;;;;;2.97;2.50;;;13.40;99.90;;;;;;5138877;27;20404;-63
2023/07/20 02:48:09;;;;;;;3.03;2.60;;;13.40;99.90;;;;;;5124445;27;20039;-63
2023/07/20 02:50:35;;;;;;;3.15;2.90;;;13.40;99.90;;;;;;5122940;27;20046;-62
2023/07/20 02:53:01;;;;;;;2.70;2.50;;;13.40;99.90;;;;;;5151216;27;20054;-61
2023/07/20 02:55:27;;;;;;;3.47;2.90;;;13.30;99.90;;;;;;5121298;27;20042;-62
2023/07/20 02:57:52;;;;;;;3.38;2.40;;;13.30;99.90;;;;;;5129551;27;20061;-62
2023/07/20 03:00:19;;;;;;;4.20;2.53;;;13.30;99.90;;;;;;5101288;27;20169;-62
2023/07/20 03:02:47;;;;;;;2.58;2.38;;;13.20;99.90;;;;;;5122367;27;20400;-62
2023/07/20 03:05:13;;;;;;;2.50;2.30;;;13.20;99.90;;;;;;5123028;27;20069;-62
2023/07/20 03:07:39;;;;;;;2.50;2.30;;;13.20;99.90;;;;;;5125805;27;20107;-62
2023/07/20 03:10:08;;;;;;;2.40;2.20;;;13.10;99.90;;;;;;5128655;27;20039;-62
2023/07/20 03:12:34;;;;;;;2.50;2.30;;;13.10;99.90;;;;;;5107043;27;20107;-62
2023/07/20 03:15:01;;;;;;;2.88;2.67;;;13.10;99.90;;;;;;5133214;27;20042;-62
2023/07/20 03:17:27;;;;;;;2.78;2.58;;;13.10;99.90;;;;;;5117768;27;21293;-62
2023/07/20 03:19:52;;;;;;;2.60;2.40;;;13.10;99.90;;;;;;5126372;27;20046;-62
2023/07/20 03:22:18;;;;;;;3.05;2.80;;;13.00;99.90;;;;;;5130855;27;20043;-62
2023/07/20 03:24:44;;;;;;;3.10;2.90;;;13.00;99.90;;;;;;5123748;27;20526;-62
2023/07/20 03:27:09;;;;;;;2.90;2.70;;;13.00;99.90;;;;;;5121835;27;20171;-62
2023/07/20 03:29:35;;;;;;;2.97;2.70;;;12.90;99.90;;;;;;5129673;27;20053;-62
2023/07/20 03:32:01;;;;;;;3.08;2.85;;;12.90;99.90;;;;;;5133761;27;20041;-62
2023/07/20 03:34:26;;;;;;;3.35;3.05;;;12.90;99.90;;;;;;5122644;27;20034;-62
2023/07/20 03:36:52;;;;;;;2.53;1.80;;;12.90;99.90;;;;;;5130929;27;20156;-62
2023/07/20 03:39:18;;;;;;;3.80;1.70;;;12.80;99.90;;;;;;5121084;27;20130;-62
2023/07/20 03:41:43;;;;;;;3.10;2.67;;;12.80;99.90;;;;;;5114812;27;20119;-62
2023/07/20 03:44:09;;;;;;;1.83;1.73;;;12.70;99.90;;;;;;5126873;27;20594;-62
2023/07/20 03:46:34;;;;;;;2.30;2.10;;;12.70;99.90;;;;;;5134321;27;20049;-62
2023/07/20 03:49:00;;;;;;;1.73;1.48;;;12.70;99.90;;;;;;5115330;27;20053;-62
2023/07/20 03:51:26;;;;;;;2.38;1.67;;;12.70;99.90;;;;;;5139385;27;20039;-62
2023/07/20 03:53:52;;;;;;;1.52;1.42;;;12.60;99.90;;;;;;5123091;27;20453;-62
2023/07/20 03:56:17;;;;;;;1.50;1.40;;;12.60;99.90;;;;;;5129501;27;20046;-63
2023/07/20 03:58:43;;;;;;;1.20;1.10;;;12.60;99.90;;;;;;5148407;27;20043;-62
2023/07/20 04:01:09;;;;;;;1.30;1.20;;;12.50;99.90;;;;;;5103665;27;20477;-61
2023/07/20 04:03:36;;;;;;;1.63;1.45;;;12.50;99.90;;;;;;5138676;27;20050;-62
2023/07/20 04:06:02;;;;;;;1.88;1.77;;;12.50;99.90;;;;;;5128051;27;20038;-62
2023/07/20 04:08:27;;;;;;;1.70;1.60;;;12.50;99.90;;;;;;5126004;27;20100;-62
2023/07/20 04:10:53;;;;;;;1.70;1.60;;;12.50;99.90;;;;;;5115569;27;20049;-62
2023/07/20 04:13:19;;;;;;;2.47;1.92;;;12.50;99.90;;;;;;5121954;27;20050;-62
2023/07/20 04:15:44;;;;;;;3.05;2.85;;;12.50;99.90;;;;;;5141550;27;20045;-62
2023/07/20 04:18:10;;;;;;;2.85;2.63;;;12.50;99.90;;;;;;5149728;27;20401;-62
2023/07/20 04:20:36;;;;;;;3.30;2.55;;;12.60;99.90;;;;;;5117748;27;20110;-63
2023/07/20 04:23:01;;;;;;;2.83;2.63;;;12.60;99.90;;;;;;5123802;27;20485;-62
2023/07/20 04:25:27;;;;;;;2.72;2.53;;;12.60;99.90;;;;;;5119041;27;20035;-62
2023/07/20 04:27:53;;;;;;;2.95;2.65;;;12.70;99.90;;;;;;5119830;27;20039;-62
2023/07/20 04:30:22;;;;;;;3.33;2.47;;;12.70;99.90;;;;;;5106275;27;20065;-62
2023/07/20 04:32:49;;;;;;;3.25;2.60;;;12.70;99.90;;;;;;5121449;27;20087;-63
2023/07/20 04:35:18;;;;;;;2.65;2.45;;;12.80;99.90;;;;;;5128383;27;20560;-62
2023/07/20 04:37:46;;;;;;;2.97;2.78;;;12.80;99.90;;;;;;5123450;27;20035;-62
2023/07/20 04:40:15;;;;;;;3.38;3.15;;;12.90;99.90;;;;;;5140882;27;20624;-62
2023/07/20 04:42:40;;;;;;;3.65;2.65;;;12.90;99.90;;;;;;5115013;27;20111;-62
2023/07/20 04:45:07;;;;;;;2.58;2.38;;;13.00;99.90;;;;;;5130602;27;20039;-63
2023/07/20 04:47:32;;;;;;;3.45;3.15;;;13.00;99.90;;;;;;5124181;27;20495;-62
2023/07/20 04:49:58;;;;;;;3.72;3.40;;;13.00;99.90;;;;;;5122853;27;20053;-63
2023/07/20 04:52:24;;;;;;;3.85;3.53;;;13.00;99.90;;;;;;5127064;27;20035;-63
2023/07/20 04:54:49;;;;;;;6.30;3.70;;;13.10;99.90;;;;;;5144759;27;20134;-63
2023/07/20 04:57:15;;;;;;;4.07;3.65;;;13.10;99.90;;;;;;5129004;27;20097;-63
2023/07/20 04:59:40;;;;;;;4.07;3.67;;;13.20;99.90;;;;;;5121126;27;20043;-63
2023/07/20 05:02:06;;;;;;;4.25;3.75;;;13.20;99.90;;;;;;5123529;27;20088;-62
2023/07/20 05:04:32;;;;;;;5.55;3.75;;;13.30;99.90;;;;;;5145536;27;20073;-63
2023/07/20 05:06:57;;;;;;;4.50;4.10;;;13.30;99.90;;;;;;5129031;27;20378;-62
2023/07/20 05:09:23;;;;;;;3.75;3.45;;;13.40;99.90;;;;;;5121104;27;20051;-63
2023/07/20 05:11:49;;;;;;;4.38;3.53;;;13.40;99.90;;;;;;5114991;27;20076;-62
2023/07/20 05:14:14;;;;;;;3.83;3.53;;;13.40;99.90;;;;;;5125950;27;20035;-63
2023/07/20 05:16:40;;;;;;;5.15;3.92;;;13.50;99.90;;;;;;5124183;27;20049;-62
2023/07/20 05:19:06;;;;;;;3.65;3.35;;;13.60;99.90;;;;;;5137229;27;20404;-62
2023/07/20 05:21:31;;;;;;;4.32;3.78;;;13.70;99.90;;;;;;5137100;27;20759;-62
2023/07/20 05:23:57;;;;;;;4.65;3.47;;;13.80;99.90;;;;;;5120804;27;20042;-62
2023/07/20 05:26:23;;;;;;;4.38;3.35;;;13.90;99.90;;;;;;5129167;27;20085;-63
2023/07/20 05:28:48;;;;;;;3.85;3.13;;;14.00;99.90;;;;;;5125912;27;20043;-63
2023/07/20 05:31:14;;;;;;;4.57;2.80;;;14.00;99.90;;;;;;5145899;27;20559;-63
2023/07/20 05:33:40;;;;;;;3.65;3.35;;;14.00;99.90;;;;;;5140339;27;20405;-63
2023/07/20 05:36:05;;;;;;;4.65;2.90;;;14.10;99.90;;;;;;5148159;27;20035;-62
2023/07/20 05:38:31;;;;;;;4.40;3.10;;;14.20;99.90;;;;;;5141624;27;20047;-63
2023/07/20 05:41:01;;;;;;;3.10;2.90;;;14.30;99.90;;;;;;5123439;27;20050;-63
2023/07/20 05:43:27;;;;;;;3.03;2.70;;;14.40;99.90;;;;;;5121942;27;20046;-63
2023/07/20 05:45:53;;;;;;;3.33;2.70;;;14.50;99.90;;;;;;5127070;27;20042;-63
2023/07/20 05:48:19;;;;;;;3.08;2.30;;;14.60;99.90;;;;;;5140023;27;20058;-62
2023/07/20 05:50:44;;;;;;;3.55;2.58;;;14.70;99.90;;;;;;5124862;27;20039;-63
2023/07/20 05:53:10;;;;;;;2.90;2.40;;;14.80;99.90;;;;;;5133171;27;20046;-62
2023/07/20 05:55:35;;;;;;;2.47;2.20;;;14.90;99.90;;;;;;5117669;27;20039;-63
2023/07/20 05:58:01;;;;;;;4.00;2.58;;;14.90;99.90;;;;;;5100496;27;20050;-62
2023/07/20 06:00:29;;;;;;;4.03;1.83;;;15.00;99.90;;;;;;5120516;27;20378;-62
2023/07/20 06:02:55;;;;;;;2.50;1.98;;;15.10;99.90;;;;;;5114928;27;20664;-62
2023/07/20 06:05:23;;;;;;;2.25;2.00;;;15.30;99.90;;;;;;5099132;28;20031;-63
2023/07/20 06:07:49;;;;;;;1.80;1.70;;;15.40;99.90;;;;;;5112819;27;20043;-62
2023/07/20 06:10:15;;;;;;;4.22;2.13;;;15.50;99.90;;;;;;5113114;28;20485;-63
2023/07/20 06:12:41;;;;;;;2.05;1.60;;;15.70;99.90;;;;;;5129982;27;20062;-63
2023/07/20 06:15:28;;;;;;;2.88;1.55;;;15.80;99.90;;;;;;5125246;27;20034;-63
2023/07/20 06:17:55;;;;;;;2.35;1.38;;;15.80;99.90;;;;;;5152173;27;20050;-62
2023/07/20 06:20:22;;;;;;;2.30;1.70;;;15.90;99.90;;;;;;5133726;27;20042;-63
2023/07/20 06:22:47;;;;;;;2.13;1.67;;;16.00;99.90;;;;;;5113686;27;20060;-63
2023/07/20 06:25:13;;;;;;;2.15;1.45;;;16.10;99.90;;;;;;5121234;28;20121;-63
2023/07/20 06:27:39;;;;;;;3.92;1.30;;;16.30;99.90;;;;;;5132015;27;20043;-63
2023/07/20 06:30:05;;;;;;;2.15;1.20;;;16.40;99.90;;;;;;5133377;27;20043;-63
2023/07/20 06:32:31;;;;;;;1.27;1.10;;;16.50;99.90;;;;;;5152157;27;20039;-63
2023/07/20 06:34:57;;;;;;;3.50;1.40;;;16.60;99.90;;;;;;5127662;27;20118;-63
2023/07/20 06:37:22;;;;;;;4.53;0.80;;;16.70;99.90;;;;;;5133369;27;20540;-63
2023/07/20 06:39:48;;;;;;;1.70;1.00;;;16.80;99.90;;;;;;5133391;27;20047;-63
2023/07/20 06:42:14;;;;;;;2.38;1.20;;;16.80;99.90;;;;;;5129861;27;20031;-62
2023/07/20 06:44:39;;;;;;;1.63;1.10;;;17.00;99.90;;;;;;5134859;27;20071;-62
2023/07/20 06:47:05;;;;;;;2.53;0.93;;;17.00;99.90;;;;;;5112936;27;20049;-62
2023/07/20 06:49:31;;;;;;;2.88;1.10;;;17.10;99.90;;;;;;5136909;27;20035;-62
2023/07/20 06:51:57;;;;;;;1.40;0.93;;;17.10;99.90;;;;;;5136662;27;20046;-63
2023/07/20 06:54:22;;;;;;;1.63;1.10;;;17.20;99.90;;;;;;5136986;27;20035;-62
2023/07/20 06:56:48;;;;;;;1.40;0.90;;;17.20;99.90;;;;;;5117250;27;20426;-63
2023/07/20 06:59:13;;;;;;;2.72;0.98;;;17.30;99.90;;;;;;5137768;27;20118;-62
2023/07/20 07:01:39;;;;;;;1.00;0.80;;;17.30;99.90;;;;;;5136672;27;20078;-62
2023/07/20 07:04:05;;;;;;;2.33;1.00;;;17.50;99.90;;;;;;5141094;27;20437;-62
2023/07/20 07:06:31;;;;;;;0.80;0.80;;;17.50;99.90;;;;;;5137080;27;20481;-62
2023/07/20 07:08:57;;;;;;;2.25;1.10;;;17.60;99.90;;;;;;5116256;27;20126;-63
2023/07/20 07:11:23;;;;;;;2.10;1.20;;;17.70;99.90;;;;;;5122945;27;20133;-62
2023/07/20 07:13:50;;;;;;;2.90;1.15;;;17.60;99.90;;;;;;5155073;27;20528;-62
2023/07/20 07:16:18;;;;;;;1.63;0.70;;;17.50;99.90;;;;;;5135123;27;20039;-62
2023/07/20 07:18:47;;;;;;;2.05;1.00;;;17.30;99.90;;;;;;5098639;27;20051;-62
2023/07/20 07:21:13;;;;;;;2.40;0.80;;;17.30;99.90;;;;;;5118832;27;20122;-64
2023/07/20 07:23:39;;;;;;;2.28;1.17;;;17.40;99.90;;;;;;5148662;27;20459;-62
2023/07/20 07:26:05;;;;;;;1.70;1.00;;;17.70;99.90;;;;;;5124117;27;20043;-62
2023/07/20 07:28:34;;;;;;;3.15;0.90;;;17.90;99.90;;;;;;5115938;27;20077;-62
2023/07/20 07:31:00;;;;;;;2.45;0.70;;;17.90;99.90;;;;;;5115497;27;20046;-62
2023/07/20 07:33:26;;;;;;;2.55;1.00;;;17.90;99.90;;;;;;5130593;27;20113;-62
2023/07/20 07:35:52;;;;;;;1.70;0.85;;;17.70;99.90;;;;;;5118716;27;20142;-61
2023/07/20 07:38:19;;;;;;;3.47;0.90;;;18.00;99.90;;;;;;5127635;27;20123;-63
2023/07/20 07:40:44;;;;;;;2.35;0.60;;;18.20;99.90;;;;;;5124698;27;20038;-62
2023/07/20 07:43:10;;;;;;;2.85;0.63;;;18.10;99.90;;;;;;5115354;27;20038;-62
2023/07/20 07:45:39;;;;;;;2.13;0.80;;;18.40;99.90;;;;;;5128640;27;20430;-62
2023/07/20 07:48:05;;;;;;;7.15;1.05;;;18.40;99.90;;;;;;5134453;27;20473;-62
2023/07/20 07:50:32;;;;;;;2.22;0.60;;;18.80;99.90;;;;;;5115096;27;20051;-61
2023/07/20 07:52:57;;;;;;;1.20;0.60;;;18.60;99.90;;;;;;5122609;27;20129;-62
2023/07/20 07:55:26;;;;;;;2.88;0.82;;;18.30;99.90;;;;;;5154111;27;20134;-63
2023/07/20 07:57:52;;;;;;;3.75;0.82;;;18.10;99.90;;;;;;5135797;27;20050;-63
2023/07/20 08:00:18;;;;;;;1.77;0.77;;;17.90;99.90;;;;;;5118236;27;20042;-62
2023/07/20 08:02:46;;;;;;;2.75;1.10;;;17.70;99.90;;;;;;5127857;27;20539;-63
2023/07/20 08:05:12;;;;;;;1.13;0.85;;;17.50;99.90;;;;;;5132998;27;20039;-63
2023/07/20 08:07:38;;;;;;;1.67;1.23;;;17.40;99.90;;;;;;5136388;27;20276;-63
2023/07/20 08:10:04;;;;;;;1.60;0.82;;;17.40;99.90;;;;;;5125229;27;20067;-63
2023/07/20 08:12:30;;;;;;;3.30;0.90;;;17.60;99.90;;;;;;5139186;27;20171;-62
2023/07/20 08:14:56;;;;;;;2.00;0.80;;;17.80;99.90;;;;;;5135210;27;20129;-62
2023/07/20 08:17:22;;;;;;;1.98;0.73;;;18.30;99.90;;;;;;5135533;27;20477;-62
2023/07/20 08:19:47;;;;;;;2.50;0.88;;;18.70;99.90;;;;;;5148979;27;20035;-63
2023/07/20 08:22:13;;;;;;;2.40;0.82;;;18.90;99.90;;;;;;5114222;27;20047;-63
2023/07/20 08:24:40;;;;;;;3.78;1.15;;;19.10;99.90;;;;;;5114740;27;20031;-62
2023/07/20 08:27:06;;;;;;;2.38;0.88;;;19.10;99.90;;;;;;5148906;27;20045;-63
2023/07/20 08:29:31;;;;;;;2.05;0.85;;;19.10;99.90;;;;;;5134854;27;20051;-62
2023/07/20 08:31:57;;;;;;;3.28;0.73;;;19.30;99.90;;;;;;5153337;27;20054;-63
2023/07/20 08:34:23;;;;;;;4.10;0.85;;;19.30;99.90;;;;;;5135114;27;20462;-63
2023/07/20 08:36:48;;;;;;;1.27;0.80;;;19.40;99.90;;;;;;5135352;27;20049;-62
2023/07/20 08:39:14;;;;;;;3.92;1.13;;;19.30;99.90;;;;;;5134565;27;20038;-62
2023/07/20 08:41:42;;;;;;;2.63;1.00;;;19.40;99.90;;;;;;5134892;27;20034;-62
2023/07/20 08:44:08;;;;;;;2.60;0.80;;;19.60;99.90;;;;;;5119018;27;20043;-63
2023/07/20 08:46:37;;;;;;;3.40;0.98;;;19.80;99.90;;;;;;5114150;27;20122;-63
2023/07/20 08:49:03;;;;;;;3.90;0.95;;;20.10;99.90;;;;;;5132340;27;20039;-62
2023/07/20 08:51:31;;;;;;;3.30;0.85;;;20.20;99.90;;;;;;5132545;27;20047;-63
2023/07/20 08:53:58;;;;;;;1.63;0.70;;;20.30;99.90;;;;;;5122066;27;20117;-64
2023/07/20 08:56:25;;;;;;;2.50;0.70;;;20.00;99.90;;;;;;5134077;27;20072;-62
2023/07/20 08:58:53;;;;;;;3.17;0.80;;;19.80;99.90;;;;;;5134329;27;20133;-63
2023/07/20 09:01:19;;;;;;;1.73;0.90;;;19.70;99.90;;;;;;5134556;27;20085;-64
2023/07/20 09:03:46;;;;;;;2.03;0.80;;;20.00;99.90;;;;;;5134164;27;20038;-63
2023/07/20 09:06:12;;;;;;;1.92;0.80;;;20.40;99.90;;;;;;5134355;27;20051;-62
2023/07/20 09:08:42;;;;;;;2.55;0.80;;;20.70;99.90;;;;;;5134283;27;20034;-62
2023/07/20 09:11:11;;;;;;;3.00;0.73;;;20.60;99.90;;;;;;5134355;27;20431;-62
2023/07/20 09:13:37;;;;;;;3.13;0.85;;;20.50;99.90;;;;;;5098868;27;20030;-62
2023/07/20 09:16:04;;;;;;;2.45;0.85;;;20.50;99.90;;;;;;5113826;27;20039;-63
2023/07/20 09:18:34;;;;;;;1.00;0.70;;;20.80;99.90;;;;;;5113456;27;20031;-62
2023/07/20 09:21:06;;;;;;;1.52;0.77;;;21.30;99.90;;;;;;5127080;27;20481;-62
2023/07/20 09:23:34;;;;;;;1.90;0.70;;;21.40;99.90;;;;;;5134020;27;20042;-63
2023/07/20 09:26:00;;;;;;;3.33;0.80;;;21.70;99.90;;;;;;5134114;27;20049;-62
2023/07/20 09:28:26;;;;;;;0.98;0.65;;;21.70;97.10;;;;;;5133853;27;20130;-63
2023/07/20 09:30:54;;;;;;;1.35;0.70;;;21.70;98.00;;;;;;5130730;27;20109;-63
2023/07/20 09:33:22;;;;;;;3.00;0.70;;;21.30;98.80;;;;;;5113289;27;20039;-63
2023/07/20 09:35:48;;;;;;;3.78;0.73;;;20.90;99.00;;;;;;5131688;27;20040;-62
2023/07/20 09:38:15;;;;;;;3.67;0.90;;;20.50;99.90;;;;;;5113553;27;20114;-62
2023/07/20 09:40:42;;;;;;;1.73;1.30;;;20.10;99.90;;;;;;5134009;27;20091;-61
2023/07/20 09:43:11;;;;;;;3.15;0.75;;;19.70;99.90;;;;;;5134256;27;20427;-61
2023/07/20 09:45:41;;;;;;;5.47;1.58;;;19.30;99.90;;;;;;5130272;27;20356;-63
2023/07/20 09:48:08;;;;;;;7.25;1.23;;;18.90;99.90;;;;;;5131592;27;20107;-62
2023/07/20 09:50:41;;;;;;;4.07;1.20;;;18.60;99.90;;;;;;5131476;27;20047;-62
2023/07/20 09:53:07;;;;;;;3.13;1.20;;;18.40;99.90;;;;;;5140496;27;20043;-62
2023/07/20 09:55:34;;;;;;;4.63;1.38;;;18.10;99.90;;;;;;5131591;27;20510;-62
2023/07/20 09:58:00;;;;;;;4.22;1.50;;;17.90;99.90;;;;;;5113218;27;20047;-62
2023/07/20 10:00:26;;;;;;;3.08;1.00;;;17.80;99.90;;;;;;5113086;27;20035;-62
2023/07/20 10:02:53;;;;;;;1.55;1.00;;;17.70;99.90;;;;;;5126622;27;20057;-63
2023/07/20 10:05:20;;;;;;;1.45;1.00;;;17.60;99.90;;;;;;5151971;27;20074;-62
2023/07/20 10:07:50;;;;;;;1.25;1.00;;;17.70;99.90;;;;;;5130131;27;20383;-63
2023/07/20 10:10:17;;;;;;;2.33;1.20;;;17.80;99.90;;;;;;5113526;28;20088;-62
2023/07/20 10:12:44;;;;;;;2.40;1.05;;;17.80;99.90;;;;;;5113390;27;20096;-62
2023/07/20 10:15:16;;;;;;;1.92;1.10;;;17.90;99.90;;;;;;5131550;27;20035;-62
2023/07/20 10:17:56;;;;;;;2.55;1.10;;;17.90;99.90;;;;;;5125077;27;20146;-61
2023/07/20 10:20:22;;;;;;;1.40;1.15;;;18.00;99.90;;;;;;5116883;27;20114;-62
2023/07/20 10:22:52;;;;;;;2.17;1.08;;;18.00;99.90;;;;;;5117378;27;20130;-62
2023/07/20 10:25:20;;;;;;;2.00;1.10;;;18.10;99.90;;;;;;5125503;27;20311;-62
2023/07/20 10:27:46;;;;;;;3.30;1.42;;;18.20;99.90;;;;;;5116956;27;20112;-62
2023/07/20 10:30:13;;;;;;;2.65;1.40;;;18.20;99.90;;;;;;5125312;27;20067;-61
2023/07/20 10:32:41;;;;;;;2.00;1.30;;;18.30;99.90;;;;;;5099790;27;20406;-63
2023/07/20 10:35:14;;;;;;;2.35;1.50;;;18.30;99.90;;;;;;5117099;27;20378;-63
2023/07/20 10:37:49;;;;;;;5.25;1.60;;;18.40;99.90;;;;;;5135087;27;20118;-62
2023/07/20 10:40:37;;;;;;;2.05;1.30;;;18.50;99.90;;;;;;5116912;27;20035;-63
2023/07/20 10:43:06;;;;;;;2.17;1.40;;;18.80;99.90;;;;;;5116706;27;20035;-63
2023/07/20 10:45:38;;;;;;;2.05;1.45;;;19.10;99.90;;;;;;5135996;27;20503;-62
2023/07/20 10:48:23;;;;;;;2.97;1.20;;;19.30;99.90;;;;;;5155670;27;20500;-62
2023/07/20 10:51:15;;;;;;;2.65;1.20;;;19.70;99.90;;;;;;5120353;27;20371;-61
2023/07/20 10:53:41;;;;;;;3.05;1.33;;;20.00;99.90;;;;;;5105702;27;20397;-62
2023/07/20 10:56:18;;;;;;;2.88;1.10;;;20.50;99.90;;;;;;5134821;27;20050;-62
2023/07/20 10:58:44;;;;;;;4.57;1.60;;;20.70;99.90;;;;;;5116589;27;20392;-62
2023/07/20 11:01:17;;;;;;;3.42;0.90;;;21.00;99.90;;;;;;5116282;27;20039;-62
2023/07/20 11:03:44;;;;;;;1.35;0.93;;;21.10;99.90;;;;;;5098826;27;20047;-62
2023/07/20 11:06:28;;;;;;;3.90;0.70;;;20.90;99.90;;;;;;5127346;27;20039;-62
2023/07/20 11:08:59;;;;;;;1.60;0.90;;;21.00;99.90;;;;;;5124996;27;20043;-62
2023/07/20 11:11:30;;;;;;;0.97;0.80;;;21.00;99.90;;;;;;5134695;27;20493;-62
2023/07/20 11:14:03;;;;;;;2.30;1.20;;;20.90;99.90;;;;;;5118993;27;20046;-62
2023/07/20 11:16:39;;;;;;;2.15;1.35;;;20.80;99.90;;;;;;5155261;27;20037;-63
2023/07/20 11:19:13;;;;;;;2.00;1.10;;;20.80;99.90;;;;;;5155219;27;20045;-62
2023/07/20 11:21:41;;;;;;;2.00;1.33;;;20.60;99.90;;;;;;5121982;27;20047;-62
2023/07/20 11:24:09;;;;;;;2.17;1.00;;;20.50;99.90;;;;;;5115911;27;20434;-61
2023/07/20 11:26:44;;;;;;;4.15;1.52;;;20.50;99.90;;;;;;5123870;27;20099;-62
2023/07/20 11:29:10;;;;;;;1.25;0.90;;;20.40;99.90;;;;;;5144561;27;20041;-63
2023/07/20 11:31:40;;;;;;;1.45;1.15;;;20.30;99.90;;;;;;5122448;27;20039;-62
2023/07/20 11:34:13;;;;;;;1.88;1.00;;;20.20;99.90;;;;;;5124263;27;20049;-62
2023/07/20 11:36:47;;;;;;;3.75;1.05;;;20.10;99.90;;;;;;5115591;27;20050;-61
2023/07/20 11:39:19;;;;;;;2.60;0.90;;;20.00;99.90;;;;;;5120325;27;20039;-61
2023/07/20 11:41:49;;;;;;;;;;;19.80;99.90;;;;;;5119240;27;20583;-62
2023/07/20 11:44:16;;;;;;;2.47;1.17;;;19.80;99.90;;;;;;5133861;27;19998;-62
2023/07/20 11:46:44;;;;;;;3.72;1.40;;;19.80;99.90;;;;;;5115888;27;20512;-61
2023/07/20 11:49:10;;;;;;;3.28;0.90;;;19.90;99.90;;;;;;5115117;27;20046;-62
2023/07/20 11:51:37;;;;;;;1.13;0.75;;;20.00;99.90;;;;;;5133631;27;20027;-62
2023/07/20 11:54:04;;;;;;;1.60;0.95;;;20.00;99.90;;;;;;5126315;27;20034;-62
2023/07/20 11:56:30;;;;;;;2.30;0.75;;;19.90;99.90;;;;;;5154163;27;20051;-61
2023/07/20 11:58:59;;;;;;;1.27;0.90;;;20.10;99.90;;;;;;5154132;27;20055;-62
2023/07/20 12:01:29;;;;;;;1.40;0.90;;;20.20;99.90;;;;;;5142983;27;20496;-62
2023/07/20 12:04:03;;;;;;;2.95;0.85;;;20.30;99.90;;;;;;5130406;27;20394;-62
2023/07/20 12:06:29;;;;;;;1.25;0.90;;;20.30;98.90;;;;;;5132483;27;20074;-63
2023/07/20 12:08:59;;;;;;;2.13;1.15;;;20.10;99.80;;;;;;5133195;27;20485;-63
2023/07/20 12:11:38;;;;;;;2.78;1.02;;;19.90;99.90;;;;;;5142264;27;20023;-62
2023/07/20 12:14:07;;;;;;;1.55;0.93;;;19.70;99.90;;;;;;5144231;27;20061;-62
2023/07/20 12:16:35;;;;;;;1.08;0.80;;;19.50;99.90;;;;;;5145354;27;20038;-62
2023/07/20 12:19:09;;;;;;;2.63;0.95;;;19.30;99.90;;;;;;5125565;27;20076;-61
2023/07/20 12:21:37;;;;;;;2.00;1.08;;;19.20;99.90;;;;;;5114844;27;20088;-62
2023/07/20 12:24:04;;;;;;;2.30;0.90;;;19.20;99.90;;;;;;5133066;27;20043;-62
2023/07/20 12:26:30;;;;;;;1.83;0.88;;;19.20;99.90;;;;;;5114790;27;20046;-62
2023/07/20 12:28:56;;;;;;;1.88;0.85;;;19.20;99.90;;;;;;5114391;27;20047;-62
2023/07/20 12:31:23;;;;;;;1.33;0.90;;;19.10;99.90;;;;;;5114699;27;20050;-62
2023/07/20 12:33:49;;;;;;;1.95;0.80;;;19.10;99.90;;;;;;5122344;27;20065;-61
2023/07/20 12:36:15;;;;;;;6.03;0.88;;;19.10;99.90;;;;;;5153400;27;20115;-62
2023/07/20 12:38:41;;;;;;;4.05;1.00;;;19.10;99.90;;;;;;5131542;27;20533;-62
2023/07/20 12:41:09;;;;;;;1.77;0.95;;;19.10;99.90;;;;;;5134995;27;20066;-61
2023/07/20 12:43:35;;;;;;;1.95;0.90;;;19.10;99.90;;;;;;5134705;27;20035;-62
2023/07/20 12:46:01;;;;;;;1.52;1.00;;;19.20;99.90;;;;;;5134101;27;20050;-62
2023/07/20 12:48:27;;;;;;;2.38;0.77;;;19.30;99.90;;;;;;5118440;27;20485;-61
2023/07/20 12:50:52;;;;;;;2.00;0.95;;;19.30;99.90;;;;;;5153421;27;20118;-62